createdAt,value
2018-11-27T00:01:02.436Z,196.93
2018-11-27T00:03:36.878Z,180.43
2018-11-27T00:06:08.629Z,181.03
2018-11-27T00:08:37.678Z,197.90
2018-11-27T00:11:06.757Z,193.67
2018-11-27T00:13:35.757Z,199.27
2018-11-27T00:16:04.747Z,184.33
2018-11-27T00:18:33.760Z,193.90
2018-11-27T00:21:01.782Z,183.40
2018-11-27T00:23:29.720Z,188.60
2018-11-27T00:25:58.423Z,185.80
2018-11-27T00:28:27.302Z,185.87
2018-11-27T00:30:55.165Z,171.00
2018-11-27T00:33:23.013Z,184.10
2018-11-27T00:35:50.874Z,176.40
2018-11-27T00:38:18.729Z,173.90
2018-11-27T00:40:46.561Z,174.07
2018-11-27T00:43:14.412Z,178.40
2018-11-27T00:45:42.281Z,166.50
2018-11-27T00:48:10.138Z,166.07
2018-11-27T00:50:37.981Z,172.80
2018-11-27T00:53:05.863Z,177.33
2018-11-27T00:55:33.705Z,169.53
2018-11-27T00:58:01.561Z,179.50
2018-11-27T01:00:29.419Z,175.93
2018-11-27T01:02:57.261Z,165.87
2018-11-27T01:05:25.205Z,179.60
2018-11-27T01:07:53.121Z,193.00
2018-11-27T01:10:21.450Z,165.40
2018-11-27T01:12:49.343Z,166.30
2018-11-27T01:15:17.220Z,175.97
2018-11-27T01:17:45.655Z,172.07
2018-11-27T01:20:14.025Z,168.87
2018-11-27T01:22:41.896Z,177.27
2018-11-27T01:25:09.971Z,184.37
2018-11-27T01:27:37.873Z,176.73
2018-11-27T01:30:07.965Z,172.60
2018-11-27T01:32:35.814Z,174.80
2018-11-27T01:35:03.994Z,170.67
2018-11-27T01:37:31.848Z,154.37
2018-11-27T01:39:59.702Z,150.83
2018-11-27T01:42:27.550Z,157.60
2018-11-27T01:44:55.385Z,151.07
2018-11-27T01:47:23.224Z,154.17
2018-11-27T01:49:51.084Z,150.80
2018-11-27T01:52:25.580Z,147.57
2018-11-27T01:54:53.410Z,140.97
2018-11-27T01:57:21.249Z,146.03
2018-11-27T01:59:49.084Z,160.57
2018-11-27T02:02:16.932Z,154.03
2018-11-27T02:04:51.330Z,149.90
2018-11-27T02:07:19.178Z,159.23
2018-11-27T02:09:47.013Z,147.63
2018-11-27T02:12:14.859Z,167.83
2018-11-27T02:14:42.693Z,146.43
2018-11-27T02:17:10.745Z,146.87
2018-11-27T02:19:38.601Z,152.03
2018-11-27T02:22:06.657Z,230.57
2018-11-27T02:24:34.701Z,143.23
2018-11-27T02:27:02.734Z,141.20
2018-11-27T02:29:30.773Z,151.17
2018-11-27T02:31:58.614Z,191.20
2018-11-27T02:34:26.652Z,132.67
2018-11-27T02:36:54.665Z,145.20
2018-11-27T02:39:22.713Z,147.77
2018-11-27T02:41:50.756Z,170.20
2018-11-27T02:44:18.643Z,145.83
2018-11-27T02:46:46.490Z,158.63
2018-11-27T02:49:14.347Z,161.63
2018-11-27T02:51:42.191Z,169.67
2018-11-27T02:54:10.053Z,169.10
2018-11-27T02:56:37.900Z,171.40
2018-11-27T02:59:06.281Z,173.07
2018-11-27T03:01:34.308Z,181.30
2018-11-27T03:04:02.354Z,175.60
2018-11-27T03:06:30.386Z,187.13
2018-11-27T03:08:58.410Z,192.70
2018-11-27T03:11:26.456Z,191.50
2018-11-27T03:13:54.474Z,176.70
2018-11-27T03:16:22.505Z,185.90
2018-11-27T03:18:50.542Z,184.93
2018-11-27T03:21:18.586Z,178.50
2018-11-27T03:23:46.621Z,185.00
2018-11-27T03:26:14.665Z,182.33
2018-11-27T03:28:42.702Z,187.20
2018-11-27T03:31:10.761Z,194.27
2018-11-27T03:33:38.806Z,177.70
2018-11-27T03:36:06.854Z,183.77
2018-11-27T03:38:34.896Z,165.60
2018-11-27T03:41:02.929Z,175.23
2018-11-27T03:43:30.948Z,194.40
2018-11-27T03:45:58.973Z,172.87
2018-11-27T03:48:27.015Z,163.07
2018-11-27T03:50:55.061Z,160.50
2018-11-27T03:53:23.080Z,183.40
2018-11-27T03:55:51.298Z,159.60
2018-11-27T03:58:19.343Z,164.73
2018-11-27T04:00:47.383Z,178.90
2018-11-27T04:03:15.440Z,188.57
2018-11-27T04:05:43.527Z,173.70
2018-11-27T04:08:11.614Z,163.17
2018-11-27T04:10:40.700Z,166.70
2018-11-27T04:13:08.726Z,169.13
2018-11-27T04:15:36.776Z,162.77
2018-11-27T04:18:04.861Z,180.60
2018-11-27T04:20:32.903Z,166.60
2018-11-27T04:23:00.939Z,173.87
2018-11-27T04:25:29.007Z,173.27
2018-11-27T04:27:57.066Z,168.40
2018-11-27T04:30:25.100Z,167.40
2018-11-27T04:32:53.125Z,163.87
2018-11-27T04:35:21.720Z,158.37
2018-11-27T04:37:49.841Z,163.63
2018-11-27T04:40:20.813Z,167.87
2018-11-27T04:42:48.893Z,168.37
2018-11-27T04:45:23.523Z,161.83
2018-11-27T04:47:51.566Z,169.27
2018-11-27T04:50:19.889Z,160.57
2018-11-27T04:52:47.958Z,158.70
2018-11-27T04:55:16.814Z,170.93
2018-11-27T04:57:45.640Z,152.73
2018-11-27T05:00:14.634Z,173.00
2018-11-27T05:02:42.651Z,151.07
2018-11-27T05:05:10.763Z,155.43
2018-11-27T05:07:38.866Z,169.43
2018-11-27T05:10:11.220Z,169.10
2018-11-27T05:12:39.602Z,152.43
2018-11-27T05:15:11.574Z,149.83
2018-11-27T05:17:39.605Z,158.70
2018-11-27T05:20:09.042Z,156.10
2018-11-27T05:22:37.089Z,156.23
2018-11-27T05:25:06.915Z,152.83
2018-11-27T05:27:34.958Z,146.73
2018-11-27T05:30:03.410Z,155.83
2018-11-27T05:32:31.425Z,154.13
2018-11-27T05:34:59.466Z,166.70
2018-11-27T05:37:27.508Z,154.40
2018-11-27T05:39:55.558Z,158.83
2018-11-27T05:42:23.677Z,155.50
2018-11-27T05:44:51.702Z,160.63
2018-11-27T05:47:19.734Z,155.63
2018-11-27T05:49:47.786Z,167.37
2018-11-27T05:52:15.842Z,164.27
2018-11-27T05:54:43.876Z,173.70
2018-11-27T05:57:11.926Z,169.10
2018-11-27T05:59:39.959Z,161.13
2018-11-27T06:02:08.058Z,167.23
2018-11-27T06:04:36.110Z,152.90
2018-11-27T06:07:04.146Z,161.23
2018-11-27T06:09:32.178Z,153.77
2018-11-27T06:12:00.213Z,179.00
2018-11-27T06:14:28.281Z,159.20
2018-11-27T06:16:56.336Z,161.60
2018-11-27T06:19:24.376Z,166.80
2018-11-27T06:21:52.429Z,153.67
2018-11-27T06:24:20.615Z,159.20
2018-11-27T06:26:48.645Z,157.83
2018-11-27T06:29:16.688Z,162.40
2018-11-27T06:31:44.816Z,167.73
2018-11-27T06:34:12.837Z,162.03
2018-11-27T06:36:40.898Z,161.30
2018-11-27T06:39:10.035Z,155.90
2018-11-27T06:41:38.102Z,163.10
2018-11-27T06:44:06.392Z,146.57
2018-11-27T06:46:34.585Z,164.10
2018-11-27T06:49:02.802Z,147.93
2018-11-27T06:51:30.867Z,162.50
2018-11-27T06:53:58.894Z,148.40
2018-11-27T06:56:27.449Z,151.73
2018-11-27T06:58:56.094Z,161.20
2018-11-27T07:01:24.826Z,156.50
2018-11-27T07:03:53.368Z,145.43
2018-11-27T07:06:21.877Z,162.67
2018-11-27T07:08:49.901Z,152.53
2018-11-27T07:11:18.151Z,155.23
2018-11-27T07:13:46.196Z,155.47
2018-11-27T07:16:14.392Z,166.40
2018-11-27T07:18:42.599Z,154.83
2018-11-27T07:21:11.365Z,151.00
2018-11-27T07:23:39.372Z,143.43
2018-11-27T07:26:07.418Z,155.07
2018-11-27T07:28:35.449Z,153.43
2018-11-27T07:31:03.500Z,158.80
2018-11-27T07:33:31.534Z,156.13
2018-11-27T07:35:59.569Z,158.23
2018-11-27T07:38:27.607Z,163.07
2018-11-27T07:40:55.778Z,166.43
2018-11-27T07:43:23.813Z,158.73
2018-11-27T07:45:55.145Z,156.40
2018-11-27T07:48:19.946Z,151.63
2018-11-27T07:50:47.988Z,166.03
2018-11-27T07:53:16.043Z,169.67
2018-11-27T07:55:44.109Z,173.33
2018-11-27T07:58:12.136Z,171.47
2018-11-27T08:00:40.614Z,168.47
2018-11-27T08:03:08.676Z,164.70
2018-11-27T08:05:39.914Z,191.70
2018-11-27T08:08:09.599Z,179.07
2018-11-27T08:10:37.769Z,180.27
2018-11-27T08:13:06.994Z,174.77
2018-11-27T08:15:35.078Z,183.60
2018-11-27T08:18:03.200Z,200.80
2018-11-27T08:20:32.404Z,195.97
2018-11-27T08:23:00.679Z,195.07
2018-11-27T08:25:28.751Z,190.87
2018-11-27T08:27:56.876Z,186.50
2018-11-27T08:30:25.255Z,183.17
2018-11-27T08:32:54.069Z,167.77
2018-11-27T08:35:23.128Z,193.93
2018-11-27T08:37:52.252Z,178.17
2018-11-27T08:40:21.504Z,180.57
2018-11-27T08:42:49.869Z,186.03
2018-11-27T08:45:19.952Z,184.67
2018-11-27T08:47:48.749Z,171.73
2018-11-27T08:50:17.920Z,176.37
2018-11-27T08:52:47.295Z,163.63
2018-11-27T08:55:17.476Z,151.03
2018-11-27T08:57:46.137Z,182.37
2018-11-27T09:00:16.341Z,162.27
2018-11-27T09:02:45.532Z,152.67
2018-11-27T09:05:12.859Z,176.37
2018-11-27T09:07:41.065Z,168.80
2018-11-27T09:10:15.146Z,173.17
2018-11-27T09:12:43.206Z,176.20
2018-11-27T09:15:12.554Z,172.60
2018-11-27T09:17:41.357Z,179.87
2018-11-27T09:20:10.551Z,179.00
2018-11-27T09:22:38.752Z,201.47
2018-11-27T09:25:09.529Z,185.43
2018-11-27T09:27:37.578Z,225.03
2018-11-27T09:30:10.618Z,196.27
2018-11-27T09:32:38.741Z,217.43
2018-11-27T09:35:06.901Z,224.70
2018-11-27T09:37:34.963Z,213.93
2018-11-27T09:40:03.080Z,222.17
2018-11-27T09:42:31.181Z,201.93
2018-11-27T09:44:59.209Z,231.30
2018-11-27T09:47:27.268Z,257.20
2018-11-27T09:49:55.350Z,267.93
2018-11-27T09:52:23.502Z,269.23
2018-11-27T09:54:51.521Z,268.27
2018-11-27T09:57:19.649Z,251.33
2018-11-27T09:59:47.685Z,230.80
2018-11-27T10:02:15.804Z,236.60
2018-11-27T10:04:43.838Z,212.90
2018-11-27T10:07:11.868Z,227.13
2018-11-27T10:09:40.048Z,211.20
2018-11-27T10:12:08.283Z,202.77
2018-11-27T10:14:36.448Z,213.90
2018-11-27T10:17:04.673Z,248.77
2018-11-27T10:19:32.707Z,225.97
2018-11-27T10:22:00.739Z,250.47
2018-11-27T10:24:28.777Z,256.70
2018-11-27T10:26:56.800Z,235.07
2018-11-27T10:29:24.844Z,280.20
2018-11-27T10:31:52.864Z,265.83
2018-11-27T10:34:20.913Z,283.97
2018-11-27T10:36:48.963Z,296.87
2018-11-27T10:39:17.021Z,276.33
2018-11-27T10:41:45.061Z,271.37
2018-11-27T10:44:13.090Z,274.70
2018-11-27T10:46:41.117Z,266.23
2018-11-27T10:49:09.158Z,289.33
2018-11-27T10:51:37.200Z,320.90
2018-11-27T10:54:05.986Z,354.67
2018-11-27T10:56:34.019Z,324.33
2018-11-27T10:59:02.085Z,328.63
2018-11-27T11:01:35.722Z,354.23
2018-11-27T11:04:03.785Z,272.43
2018-11-27T11:06:32.651Z,295.33
2018-11-27T11:09:01.174Z,295.93
2018-11-27T11:11:29.205Z,309.03
2018-11-27T11:13:57.229Z,248.53
2018-11-27T11:16:25.472Z,295.10
2018-11-27T11:18:53.714Z,266.53
2018-11-27T11:21:21.746Z,278.47
2018-11-27T11:23:49.786Z,192.30
2018-11-27T11:26:17.832Z,207.03
2018-11-27T11:28:45.873Z,202.77
2018-11-27T11:31:13.905Z,220.23
2018-11-27T11:33:41.945Z,249.43
2018-11-27T11:36:10.014Z,215.03
2018-11-27T11:38:38.070Z,229.30
2018-11-27T11:41:09.637Z,218.87
2018-11-27T11:43:37.672Z,229.53
2018-11-27T11:46:05.999Z,224.07
2018-11-27T11:48:34.042Z,216.57
2018-11-27T11:51:02.189Z,175.40
2018-11-27T11:53:30.229Z,213.93
2018-11-27T11:55:58.276Z,182.53
2018-11-27T11:58:26.342Z,164.50
2018-11-27T12:00:55.294Z,163.63
2018-11-27T12:03:23.313Z,169.03
2018-11-27T12:05:51.360Z,216.80
2018-11-27T12:08:19.380Z,244.83
2018-11-27T12:10:47.409Z,242.07
2018-11-27T12:13:15.430Z,203.00
2018-11-27T12:15:43.453Z,241.23
2018-11-27T12:18:11.472Z,226.37
2018-11-27T12:20:46.885Z,248.20
2018-11-27T12:23:14.945Z,251.57
2018-11-27T12:25:42.986Z,286.80
2018-11-27T12:28:14.760Z,284.50
2018-11-27T12:30:39.230Z,261.27
2018-11-27T12:33:07.453Z,263.97
2018-11-27T12:35:35.537Z,292.83
2018-11-27T12:38:03.558Z,278.67
2018-11-27T12:40:31.608Z,262.27
2018-11-27T12:42:59.644Z,249.77
2018-11-27T12:45:29.257Z,258.70
2018-11-27T12:47:58.342Z,215.07
2018-11-27T12:50:42.232Z,239.80
2018-11-27T12:53:16.539Z,229.83
2018-11-27T12:55:41.006Z,245.07
2018-11-27T12:58:09.141Z,224.60
2018-11-27T13:00:37.187Z,228.33
2018-11-27T13:03:05.421Z,244.07
2018-11-27T13:05:38.590Z,253.33
2018-11-27T13:08:14.865Z,256.23
2018-11-27T13:10:42.898Z,194.53
2018-11-27T13:13:10.947Z,174.70
2018-11-27T13:15:39.799Z,161.37
2018-11-27T13:18:08.825Z,192.63
2018-11-27T13:20:36.970Z,180.87
2018-11-27T13:23:05.038Z,204.83
2018-11-27T13:25:33.076Z,240.97
2018-11-27T13:28:01.119Z,237.20
2018-11-27T13:31:04.171Z,256.37
2018-11-27T13:33:37.749Z,228.07
2018-11-27T13:36:07.509Z,236.37
2018-11-27T13:38:35.554Z,241.43
2018-11-27T13:41:03.586Z,219.43
2018-11-27T13:43:31.612Z,212.23
2018-11-27T13:46:00.666Z,229.57
2018-11-27T13:48:28.694Z,219.77
2018-11-27T13:50:56.745Z,209.30
2018-11-27T13:53:24.824Z,229.20
2018-11-27T13:55:52.840Z,243.73
2018-11-27T13:58:20.878Z,216.10
2018-11-27T14:00:48.906Z,247.20
2018-11-27T14:03:16.995Z,232.97
2018-11-27T14:05:45.036Z,229.90
2018-11-27T14:08:13.093Z,213.93
2018-11-27T14:10:41.225Z,223.77
2018-11-27T14:13:09.460Z,227.57
2018-11-27T14:15:37.845Z,251.90
2018-11-27T14:18:06.520Z,250.83
2018-11-27T14:20:34.564Z,246.90
2018-11-27T14:23:02.595Z,271.00
2018-11-27T14:25:30.654Z,243.33
2018-11-27T14:27:58.678Z,247.07
2018-11-27T14:30:26.728Z,242.40
2018-11-27T14:32:54.795Z,230.13
2018-11-27T14:35:23.477Z,245.67
2018-11-27T14:37:52.619Z,249.77
2018-11-27T14:40:22.810Z,254.23
2018-11-27T14:42:50.830Z,247.50
2018-11-27T14:45:21.224Z,252.10
2018-11-27T14:47:50.338Z,264.07
2018-11-27T14:50:18.425Z,239.97
2018-11-27T14:52:46.490Z,251.17
2018-11-27T14:55:19.893Z,251.50
2018-11-27T14:57:47.938Z,244.73
2018-11-27T15:00:16.833Z,242.40
2018-11-27T15:02:44.865Z,241.93
2018-11-27T15:05:14.313Z,260.63
2018-11-27T15:07:42.382Z,255.87
2018-11-27T15:10:11.481Z,261.30
2018-11-27T15:12:39.581Z,238.23
2018-11-27T15:15:09.454Z,227.23
2018-11-27T15:17:37.505Z,235.70
2018-11-27T15:20:11.212Z,259.47
2018-11-27T15:22:39.274Z,260.80
2018-11-27T15:25:07.569Z,247.00
2018-11-27T15:27:36.372Z,257.83
2018-11-27T15:30:16.385Z,239.13
2018-11-27T15:32:44.501Z,232.50
2018-11-27T15:35:13.198Z,242.90
2018-11-27T15:37:41.313Z,229.77
2018-11-27T15:40:14.404Z,221.57
2018-11-27T15:42:42.473Z,211.27
2018-11-27T15:45:14.874Z,219.90
2018-11-27T15:47:42.934Z,223.40
2018-11-27T15:50:11.008Z,191.57
2018-11-27T15:52:39.045Z,193.13
2018-11-27T15:55:11.257Z,206.73
2018-11-27T15:57:39.301Z,198.07
2018-11-27T16:00:10.469Z,195.97
2018-11-27T16:02:38.518Z,167.33
2018-11-27T16:05:06.557Z,187.93
2018-11-27T16:07:34.587Z,172.70
2018-11-27T16:10:02.633Z,219.13
2018-11-27T16:12:30.676Z,218.13
2018-11-27T16:14:58.726Z,223.87
2018-11-27T16:17:26.773Z,237.77
2018-11-27T16:19:54.812Z,258.40
2018-11-27T16:22:22.878Z,242.23
2018-11-27T16:24:50.946Z,249.20
2018-11-27T16:27:18.998Z,246.17
2018-11-27T16:29:47.057Z,235.33
2018-11-27T16:32:15.107Z,253.37
2018-11-27T16:34:43.166Z,230.03
2018-11-27T16:37:11.209Z,255.40
2018-11-27T16:39:39.250Z,234.00
2018-11-27T16:42:07.272Z,224.60
2018-11-27T16:44:35.303Z,227.97
2018-11-27T16:47:03.371Z,242.57
2018-11-27T16:49:31.390Z,242.17
2018-11-27T16:51:59.483Z,255.50
2018-11-27T16:54:27.528Z,269.03
2018-11-27T16:56:55.594Z,268.20
2018-11-27T16:59:23.622Z,241.87
2018-11-27T17:01:51.702Z,254.93
2018-11-27T17:04:19.730Z,253.03
2018-11-27T17:06:47.742Z,247.77
2018-11-27T17:09:15.778Z,232.90
2018-11-27T17:11:43.814Z,257.10
2018-11-27T17:14:11.875Z,256.57
2018-11-27T17:16:39.942Z,227.30
2018-11-27T17:19:07.980Z,228.00
2018-11-27T17:21:36.024Z,215.90
2018-11-27T17:24:04.077Z,199.10
2018-11-27T17:26:32.128Z,199.20
2018-11-27T17:29:00.190Z,203.40
2018-11-27T17:31:28.259Z,221.70
2018-11-27T17:34:06.474Z,208.37
2018-11-27T17:36:34.551Z,235.87
2018-11-27T17:39:02.610Z,243.40
2018-11-27T17:41:30.642Z,218.20
2018-11-27T17:43:58.678Z,233.63
2018-11-27T17:46:26.728Z,238.30
2018-11-27T17:48:54.776Z,245.93
2018-11-27T17:51:22.834Z,216.17
2018-11-27T17:53:50.905Z,184.47
2018-11-27T17:56:18.937Z,225.63
2018-11-27T17:58:46.984Z,194.90
2018-11-27T18:01:15.031Z,197.63
2018-11-27T18:03:43.057Z,232.10
2018-11-27T18:06:11.110Z,212.73
2018-11-27T18:08:39.154Z,227.07
2018-11-27T18:11:07.209Z,194.03
2018-11-27T18:13:35.999Z,190.70
2018-11-27T18:16:03.856Z,176.30
2018-11-27T18:18:31.886Z,204.33
2018-11-27T18:20:59.963Z,195.20
2018-11-27T18:23:27.999Z,170.83
2018-11-27T18:25:56.050Z,207.47
2018-11-27T18:28:24.079Z,186.70
2018-11-27T18:30:52.126Z,214.10
2018-11-27T18:33:20.174Z,193.00
2018-11-27T18:35:48.205Z,186.87
2018-11-27T18:38:16.250Z,166.93
2018-11-27T18:40:44.296Z,177.90
2018-11-27T18:43:12.338Z,199.47
2018-11-27T18:45:40.404Z,192.40
2018-11-27T18:48:08.462Z,187.47
2018-11-27T18:50:36.530Z,168.17
2018-11-27T18:53:04.606Z,185.90
2018-11-27T18:55:32.665Z,163.03
2018-11-27T18:58:00.818Z,154.93
2018-11-27T19:00:30.053Z,154.50
2018-11-27T19:02:58.138Z,177.03
2018-11-27T19:05:26.188Z,167.83
2018-11-27T19:07:54.239Z,175.17
2018-11-27T19:10:23.550Z,180.40
2018-11-27T19:12:51.861Z,166.43
2018-11-27T19:15:50.780Z,173.30
2018-11-27T19:18:21.182Z,197.00
2018-11-27T19:20:49.226Z,175.23
2018-11-27T19:23:18.324Z,167.07
2018-11-27T19:25:46.430Z,156.07
2018-11-27T19:28:14.482Z,157.53
2018-11-27T19:30:42.563Z,180.17
2018-11-27T19:33:10.612Z,166.67
2018-11-27T19:35:38.921Z,170.23
2018-11-27T19:38:09.530Z,167.40
2018-11-27T19:40:37.620Z,181.97
2018-11-27T19:43:05.973Z,190.60
2018-11-27T19:45:34.623Z,179.03
2018-11-27T19:48:02.699Z,207.47
2018-11-27T19:50:34.229Z,195.30
2018-11-27T19:53:02.542Z,194.50
2018-11-27T19:55:31.325Z,175.70
2018-11-27T19:57:59.771Z,179.40
2018-11-27T20:00:28.523Z,206.03
2018-11-27T20:02:56.774Z,164.70
2018-11-27T20:05:26.369Z,182.40
2018-11-27T20:07:54.513Z,170.37
2018-11-27T20:10:27.956Z,190.90
2018-11-27T20:12:56.062Z,177.53
2018-11-27T20:15:27.046Z,164.93
2018-11-27T20:17:55.833Z,200.13
2018-11-27T20:20:24.967Z,190.27
2018-11-27T20:22:53.816Z,184.60
2018-11-27T20:25:22.654Z,209.50
2018-11-27T20:27:50.983Z,223.43
2018-11-27T20:30:20.833Z,170.10
2018-11-27T20:32:53.045Z,194.03
2018-11-27T20:35:21.926Z,173.03
2018-11-27T20:37:50.860Z,209.73
2018-11-27T20:40:19.545Z,204.90
2018-11-27T20:42:47.697Z,202.53
2018-11-27T20:45:19.554Z,209.83
2018-11-27T20:47:49.223Z,250.60
2018-11-27T20:50:19.297Z,202.17
2018-11-27T20:52:47.607Z,221.37
2018-11-27T20:55:15.847Z,254.83
2018-11-27T20:57:59.084Z,216.07
2018-11-27T21:00:30.771Z,210.87
2018-11-27T21:03:00.012Z,245.90
2018-11-27T21:05:28.150Z,218.03
2018-11-27T21:07:56.326Z,201.73
2018-11-27T21:10:24.528Z,215.73
2018-11-27T21:12:52.572Z,224.07
2018-11-27T21:15:20.674Z,252.83
2018-11-27T21:17:48.774Z,215.90
2018-11-27T21:20:23.418Z,232.13
2018-11-27T21:22:51.498Z,211.17
2018-11-27T21:25:22.446Z,240.37
2018-11-27T21:27:54.999Z,186.03
2018-11-27T21:30:23.074Z,218.73
2018-11-27T21:32:51.141Z,223.30
2018-11-27T21:35:19.189Z,182.27
2018-11-27T21:37:47.242Z,182.93
2018-11-27T21:40:16.955Z,187.17
2018-11-27T21:42:45.085Z,157.60
2018-11-27T21:45:16.360Z,171.50
2018-11-27T21:47:44.611Z,144.97
2018-11-27T21:50:14.921Z,201.50
2018-11-27T21:52:43.078Z,161.60
2018-11-27T21:55:12.054Z,198.87
2018-11-27T21:57:40.302Z,219.57
2018-11-27T22:00:12.927Z,210.97
2018-11-27T22:02:40.998Z,250.70
2018-11-27T22:05:09.390Z,248.57
2018-11-27T22:07:37.465Z,231.97
2018-11-27T22:10:08.879Z,240.83
2018-11-27T22:12:36.978Z,233.90
2018-11-27T22:15:07.886Z,244.17
2018-11-27T22:17:35.926Z,254.87
2018-11-27T22:20:05.278Z,255.40
2018-11-27T22:22:33.370Z,287.23
2018-11-27T22:25:01.419Z,260.93
2018-11-27T22:27:29.490Z,269.73
2018-11-27T22:29:57.546Z,251.07
2018-11-27T22:32:25.586Z,256.13
2018-11-27T22:34:54.015Z,260.53
2018-11-27T22:37:22.083Z,256.83
2018-11-27T22:39:50.111Z,291.17
2018-11-27T22:42:18.183Z,268.43
2018-11-27T22:44:46.225Z,287.60
2018-11-27T22:47:14.409Z,300.30
2018-11-27T22:49:42.478Z,288.93
2018-11-27T22:52:10.636Z,302.77
2018-11-27T22:54:38.694Z,250.60
2018-11-27T22:57:06.769Z,282.00
2018-11-27T22:59:34.931Z,277.13
2018-11-27T23:02:03.097Z,279.87
2018-11-27T23:04:31.157Z,279.90
2018-11-27T23:07:05.989Z,273.03
2018-11-27T23:09:34.110Z,290.80
2018-11-27T23:12:02.265Z,276.10
2018-11-27T23:14:30.375Z,262.37
2018-11-27T23:16:58.441Z,247.57
2018-11-27T23:19:26.550Z,242.97
2018-11-27T23:21:54.629Z,238.80
2018-11-27T23:24:22.745Z,269.13
2018-11-27T23:26:57.487Z,273.27
2018-11-27T23:29:25.584Z,252.47
2018-11-27T23:31:53.770Z,257.70
2018-11-27T23:34:21.894Z,264.83
2018-11-27T23:36:49.960Z,252.77
2018-11-27T23:39:18.110Z,259.80
2018-11-27T23:41:46.205Z,278.87
2018-11-27T23:44:14.329Z,301.77
2018-11-27T23:46:42.447Z,321.63
2018-11-27T23:49:10.521Z,300.50
2018-11-27T23:51:38.650Z,307.03
2018-11-27T23:54:06.735Z,310.17
2018-11-27T23:56:34.866Z,292.40
2018-11-27T23:59:02.950Z,290.83
